Time;durP1;ratioP1;P1;durP2;ratioP2;P2;SDS_P1;SDS_P2;PMS_P1;PMS_P2;Temp;Humidity;BMP_temperature;BMP_pressure;BME280_temperature;BME280_humidity;BME280_pressure;Samples;Min_cycle;Max_cycle;Signal;HPM_P1;HPM_P2
2022/12/22 05:21:21;;;;;;;98.10;38.22;;;;;;;-0.18;100.00;100417.47;5573988;32;327412;-88
2022/12/22 05:24:26;;;;;;;90.35;37.22;;;;;;;-0.21;100.00;100425.31;5565000;32;33977;-90
2022/12/22 05:27:28;;;;;;;86.50;38.55;;;;;;;-0.18;100.00;100433.13;5565054;32;35185;-89
2022/12/22 05:30:47;;;;;;;95.62;37.85;;;;;;;-0.11;100.00;100432.22;727315;30;20446;-89
2022/12/22 05:33:50;;;;;;;82.85;36.83;;;;;;;-0.10;100.00;100435.69;5504553;32;30989;-89
2022/12/22 05:36:53;;;;;;;87.15;37.45;;;;;;;-0.10;100.00;100439.16;5506667;32;33874;-89
2022/12/22 05:39:56;;;;;;;81.57;36.08;;;;;;;-0.06;100.00;100433.06;5487206;32;34058;-89
2022/12/22 05:43:00;;;;;;;76.93;35.45;;;;;;;-0.02;100.00;100431.31;5487680;32;34123;-89
2022/12/22 05:46:05;;;;;;;76.97;35.70;;;;;;;0.03;100.00;100419.09;5487518;32;33996;-89
2022/12/22 05:49:07;;;;;;;83.45;35.47;;;;;;;0.07;100.00;100410.41;5488013;32;34291;-89
2022/12/22 05:52:10;;;;;;;78.25;37.13;;;;;;;0.09;100.00;100410.37;5486783;32;33570;-89
2022/12/22 05:55:14;;;;;;;83.15;37.03;;;;;;;0.12;100.00;100408.62;5497221;32;34374;-89
2022/12/22 05:58:17;;;;;;;78.95;37.22;;;;;;;0.14;100.00;100406.00;5494203;32;33788;-89
2022/12/22 06:01:19;;;;;;;82.47;38.65;;;;;;;0.15;100.00;100399.06;5489411;32;34011;-89
2022/12/22 06:04:22;;;;;;;81.78;37.90;;;;;;;0.22;100.00;100405.97;5486257;32;35194;-89
2022/12/22 06:07:25;;;;;;;85.60;37.80;;;;;;;0.26;100.00;100420.72;5486587;32;34666;-89
2022/12/22 06:10:28;;;;;;;77.82;37.67;;;;;;;0.20;100.00;100424.22;5485002;32;33049;-89
2022/12/22 06:13:31;;;;;;;93.20;38.42;;;;;;;0.30;100.00;100424.19;5485765;32;33761;-89
2022/12/22 06:16:36;;;;;;;92.37;38.35;;;;;;;0.35;100.00;100425.88;5486255;32;34206;-89
2022/12/22 06:19:39;;;;;;;81.40;38.17;;;;;;;0.44;100.00;100418.88;5489740;32;34453;-89
2022/12/22 06:22:42;;;;;;;82.37;37.22;;;;;;;0.42;100.00;100421.47;5499948;32;35147;-89
2022/12/22 06:25:59;;;;;;;89.03;39.92;;;;;;;0.38;100.00;100433.69;5490290;32;34246;-89
2022/12/22 06:29:02;;;;;;;82.40;38.63;;;;;;;0.38;100.00;100435.41;5486357;32;33958;-89
2022/12/22 06:32:05;;;;;;;80.68;37.00;;;;;;;0.49;100.00;100436.22;5478975;32;34362;-89
2022/12/22 06:35:09;;;;;;;86.07;38.75;;;;;;;0.42;100.00;100428.44;5478038;32;33870;-88
2022/12/22 06:38:11;;;;;;;79.75;36.97;;;;;;;0.43;100.00;100441.47;5477743;32;33874;-88
2022/12/22 06:43:07;;;;;;;84.30;39.10;;;;;;;0.52;100.00;100443.16;5484786;32;33746;-88
2022/12/22 06:44:37;;;;;;;86.25;38.20;;;;;;;0.49;100.00;100444.06;5486335;32;34033;-88
2022/12/22 06:47:40;;;;;;;88.05;38.45;;;;;;;0.42;100.00;100444.09;5509077;27;33932;-89
2022/12/22 06:50:44;;;;;;;85.93;39.25;;;;;;;0.37;100.00;100436.31;5524040;26;33930;-89
2022/12/22 06:53:47;;;;;;;83.90;37.30;;;;;;;0.38;100.00;100449.34;5493233;32;33995;-90
2022/12/22 06:56:49;;;;;;;83.25;38.33;;;;;;;0.46;100.00;100451.88;5494204;32;34486;-89
2022/12/22 06:59:52;;;;;;;91.50;39.35;;;;;;;0.47;100.00;100461.47;5494106;32;34004;-89
2022/12/22 07:02:59;;;;;;;80.20;37.45;;;;;;;0.49;100.00;100454.50;5495930;32;33924;-89
2022/12/22 07:17:17;;;;;;;82.70;36.95;;;;;;;0.59;100.00;100446.56;976128;26;20394;-88
2022/12/22 07:20:23;;;;;;;83.90;37.38;;;;;;;0.65;100.00;100439.56;5529718;32;32278;-88
2022/12/22 07:23:27;;;;;;;80.35;38.55;;;;;;;0.64;100.00;100444.81;5534854;32;34495;-89
2022/12/22 07:45:18;;;;;;;84.47;37.50;;;;;;;0.93;100.00;100446.31;5512096;32;33842;-89
2022/12/22 07:55:34;;;;;;;82.97;37.72;;;;;;;1.18;100.00;100452.19;4912522;30;20118;-88
2022/12/22 07:58:37;;;;;;;82.35;38.35;;;;;;;1.19;100.00;100458.28;5511300;32;35005;-88
2022/12/22 08:01:40;;;;;;;74.20;36.90;;;;;;;1.23;100.00;100457.37;5510598;32;33944;-88
2022/12/22 08:04:43;;;;;;;81.20;37.17;;;;;;;1.22;100.00;100466.09;5513794;32;34010;-89
2022/12/22 08:07:50;;;;;;;80.97;37.20;;;;;;;1.17;100.00;100460.06;5498367;32;33610;-88
2022/12/22 08:10:53;;;;;;;80.62;36.92;;;;;;;1.25;100.00;100450.37;5517380;32;36098;-88
2022/12/22 08:13:57;;;;;;;80.87;37.40;;;;;;;1.30;100.00;100456.44;5531424;32;34358;-89
2022/12/22 08:17:03;;;;;;;91.57;39.38;;;;;;;1.38;100.00;100453.75;5531398;32;33702;-88
2022/12/22 08:20:09;;;;;;;82.05;37.97;;;;;;;1.34;100.00;100450.31;5519072;32;33668;-89
2022/12/22 08:23:22;;;;;;;81.47;38.65;;;;;;;1.29;100.00;100459.94;5534547;32;33946;-88
2022/12/22 08:26:35;;;;;;;85.35;39.60;;;;;;;1.41;100.00;100452.84;5578934;26;33880;-88
2022/12/22 08:29:45;;;;;;;79.72;38.33;;;;;;;1.45;100.00;100449.31;5531680;32;34498;-89
2022/12/22 08:32:49;;;;;;;81.20;38.97;;;;;;;1.55;100.00;100445.72;5529794;32;34169;-92
2022/12/22 08:35:54;;;;;;;82.15;38.65;;;;;;;1.61;100.00;100439.56;5530163;32;35236;-90
2022/12/22 08:38:59;;;;;;;81.70;38.25;;;;;;;1.82;100.00;100450.63;5531771;32;34362;-90
2022/12/22 09:16:35;;;;;;;94.80;42.67;;;;;;;1.50;100.00;100433.59;4066996;30;20091;-88
2022/12/22 09:19:39;;;;;;;92.68;41.85;;;;;;;1.58;100.00;100435.22;5529509;32;34310;-88
2022/12/22 09:22:41;;;;;;;87.68;39.75;;;;;;;1.69;100.00;100429.00;5530916;26;32667;-88
2022/12/22 09:25:44;;;;;;;84.10;40.08;;;;;;;1.82;100.00;100416.63;5516854;32;32641;-88
2022/12/22 09:28:48;;;;;;;88.62;40.90;;;;;;;1.91;100.00;100419.13;5527801;32;33201;-89
2022/12/22 09:31:52;;;;;;;88.95;39.67;;;;;;;1.97;100.00;100405.09;5590005;26;34152;-89
2022/12/22 09:34:55;;;;;;;83.22;39.45;;;;;;;2.04;100.00;100411.97;5517418;32;32322;-89
2022/12/22 09:37:58;;;;;;;90.07;40.75;;;;;;;1.83;100.00;100397.44;5544609;26;34028;-90
2022/12/22 09:51:54;;;;;;;99.35;43.22;;;;;;;2.11;100.00;100399.69;5587940;26;34199;-90
2022/12/22 09:54:57;;;;;;;94.43;41.37;;;;;;;2.11;100.00;100402.31;5530937;32;34215;-90
2022/12/22 09:58:00;;;;;;;89.53;42.35;;;;;;;2.24;100.00;100396.00;5517177;32;32354;-90
2022/12/22 10:01:04;;;;;;;92.45;43.47;;;;;;;2.33;100.00;100391.50;5539849;26;33933;-90
2022/12/22 10:04:12;;;;;;;84.47;40.30;;;;;;;2.36;100.00;100391.47;5576147;26;34522;-91
2022/12/22 10:18:11;;;;;;;90.60;39.80;;;;;;;2.35;100.00;100389.72;5511764;32;33523;-89
2022/12/22 10:21:21;;;;;;;86.05;40.53;;;;;;;2.23;100.00;100375.06;5513397;32;34036;-88
2022/12/22 10:24:28;;;;;;;87.43;41.00;;;;;;;2.42;100.00;100368.66;5513109;32;34457;-88
2022/12/22 10:27:33;;;;;;;95.62;41.97;;;;;;;2.49;100.00;100364.19;5511353;32;33581;-88
2022/12/22 10:30:42;;;;;;;83.97;41.10;;;;;;;2.56;100.00;100370.19;5497153;32;32604;-88
2022/12/22 10:33:50;;;;;;;84.15;41.40;;;;;;;2.82;100.00;100368.87;5510664;32;33756;-89
2022/12/22 10:37:00;;;;;;;89.70;42.35;;;;;;;2.90;100.00;100372.22;5510838;32;33972;-89
2022/12/22 10:40:21;;;;;;;87.65;41.03;;;;;;;3.00;100.00;100357.19;5498239;32;33008;-89
2022/12/22 10:43:37;;;;;;;83.22;40.00;;;;;;;2.87;100.00;100347.84;5511005;32;33800;-89
2022/12/22 10:46:50;;;;;;;85.10;40.85;;;;;;;2.82;100.00;100355.78;5511398;32;34493;-88
2022/12/22 10:49:58;;;;;;;81.43;38.83;;;;;;;3.00;100.00;100348.47;5509497;32;33907;-88
2022/12/22 10:53:02;;;;;;;79.55;39.33;;;;;;;3.16;100.00;100323.69;5511628;32;33718;-89
2022/12/22 10:56:07;;;;;;;88.90;41.33;;;;;;;3.36;100.00;100322.41;5501471;32;33060;-88
2022/12/22 10:59:19;;;;;;;79.18;39.65;;;;;;;2.85;100.00;100326.91;5512806;32;34038;-89
2022/12/22 11:02:22;;;;;;;83.53;40.75;;;;;;;3.35;100.00;100349.53;5518465;32;34400;-91
2022/12/22 11:24:32;;;;;;;83.25;41.10;;;;;;;4.11;100.00;100310.28;1529786;26;20139;-89
2022/12/22 11:28:07;;;;;;;84.57;41.90;;;;;;;4.23;100.00;100315.22;5566287;26;32977;-89
2022/12/22 11:31:39;;;;;;;88.82;41.60;;;;;;;4.26;100.00;100314.28;5560190;26;32368;-90
2022/12/22 11:35:14;;;;;;;88.85;42.58;;;;;;;4.04;100.00;100314.81;5513030;32;34039;-89
2022/12/22 11:38:17;;;;;;;84.10;40.00;;;;;;;3.73;100.00;100315.53;5514063;32;33519;-89
2022/12/22 11:45:21;;;;;;;79.53;38.85;;;;;;;3.82;100.00;100317.94;4070503;30;20073;-89
2022/12/22 11:52:22;;;;;;;73.47;36.47;;;;;;;3.49;100.00;100318.66;3036851;26;20110;-89
2022/12/22 11:55:34;;;;;;;74.60;38.67;;;;;;;3.47;100.00;100319.59;5533278;32;33984;-89
2022/12/22 11:58:55;;;;;;;84.57;40.55;;;;;;;3.32;100.00;100321.63;5518585;32;32318;-89
2022/12/22 12:02:31;;;;;;;85.30;39.47;;;;;;;3.32;100.00;100326.00;5532524;32;35217;-89
2022/12/22 12:05:54;;;;;;;84.40;38.90;;;;;;;3.07;100.00;100303.75;5530430;32;34211;-87
2022/12/22 12:09:05;;;;;;;80.60;38.75;;;;;;;3.24;100.00;100320.91;5518043;32;33825;-87
2022/12/22 12:12:26;;;;;;;82.25;39.40;;;;;;;3.26;100.00;100316.50;5530198;32;33814;-87
2022/12/22 12:15:55;;;;;;;74.97;37.47;;;;;;;3.14;100.00;100309.75;5525322;32;34690;-87
2022/12/22 12:19:35;;;;;;;82.47;40.63;;;;;;;3.10;100.00;100308.09;5514934;32;34290;-87
2022/12/22 12:22:43;;;;;;;86.55;40.38;;;;;;;3.01;100.00;100306.50;5539390;32;33954;-88
2022/12/22 12:26:20;;;;;;;90.20;40.05;;;;;;;2.73;100.00;100279.97;5516427;32;32668;-88
2022/12/22 12:29:59;;;;;;;84.68;40.70;;;;;;;2.59;100.00;100290.69;5519108;32;34216;-89
2022/12/22 12:33:37;;;;;;;86.93;40.15;;;;;;;2.51;100.00;100293.47;5524184;32;33825;-89
2022/12/22 12:40:25;;;;;;;88.68;40.00;;;;;;;2.68;100.00;100341.16;5536278;32;33948;-90
2022/12/22 12:43:28;;;;;;;85.68;41.63;;;;;;;2.87;100.00;100348.69;5531999;32;33863;-89
2022/12/22 12:46:49;;;;;;;92.10;42.83;;;;;;;2.81;100.00;100340.94;5530414;32;33819;-88
2022/12/22 12:50:12;;;;;;;96.20;44.42;;;;;;;2.85;100.00;100332.13;5526639;32;34044;-90
2022/12/22 12:53:17;;;;;;;89.35;42.28;;;;;;;2.88;100.00;100339.97;5539268;32;35267;-88
2022/12/22 12:56:53;;;;;;;94.62;43.00;;;;;;;2.59;100.00;100343.06;5529916;32;34131;-88
2022/12/22 13:00:01;;;;;;;91.28;42.95;;;;;;;2.67;100.00;100331.56;5520446;32;33691;-88
2022/12/22 13:03:11;;;;;;;90.87;43.08;;;;;;;2.71;100.00;100324.53;5521430;32;34272;-89
2022/12/22 13:06:50;;;;;;;91.63;42.10;;;;;;;2.79;100.00;100317.41;5534171;32;33874;-89
2022/12/22 13:25:15;;;;;;;93.12;43.05;;;;;;;2.29;100.00;100271.16;3034345;26;20110;-89
2022/12/22 13:28:22;;;;;;;89.90;42.60;;;;;;;2.34;100.00;100288.50;5520868;32;32467;-88
2022/12/22 13:31:27;;;;;;;88.45;41.28;;;;;;;2.51;100.00;100278.59;5532374;32;34664;-88
2022/12/22 13:34:38;;;;;;;100.18;43.13;;;;;;;2.62;100.00;100278.41;5533108;32;34175;-89
2022/12/22 13:38:01;;;;;;;95.97;43.50;;;;;;;2.58;100.00;100268.03;5528324;32;33851;-88
2022/12/22 13:41:25;;;;;;;100.20;44.72;;;;;;;2.42;100.00;100242.12;5514285;32;33280;-89
2022/12/22 13:44:31;;;;;;;95.80;42.83;;;;;;;2.35;100.00;100245.72;5529981;32;33733;-88
2022/12/22 13:47:40;;;;;;;96.07;43.30;;;;;;;2.42;100.00;100249.97;5531157;32;34066;-88
2022/12/22 13:50:51;;;;;;;101.80;45.25;;;;;;;2.38;100.00;100241.31;5530425;32;33668;-87
2022/12/22 13:53:58;;;;;;;100.10;44.72;;;;;;;2.25;100.00;100230.19;5530564;32;34512;-88
2022/12/22 13:57:17;;;;;;;95.62;43.83;;;;;;;2.14;100.00;100253.94;5531277;32;34581;-89
2022/12/22 14:00:25;;;;;;;106.55;44.70;;;;;;;2.26;100.00;100217.97;5518433;32;33476;-88
2022/12/22 14:03:27;;;;;;;104.15;44.55;;;;;;;2.16;100.00;100246.03;5531805;32;34332;-88
2022/12/22 14:06:50;;;;;;;96.55;44.20;;;;;;;2.12;100.00;100215.59;5532297;32;33904;-88
2022/12/22 14:09:57;;;;;;;97.85;43.90;;;;;;;2.04;100.00;100235.78;5531915;32;34112;-88
2022/12/22 14:13:04;;;;;;;98.18;43.30;;;;;;;2.08;100.00;100240.09;5530506;32;33915;-88
2022/12/22 14:16:12;;;;;;;101.35;42.62;;;;;;;2.11;100.00;100242.66;5530959;32;33622;-89
2022/12/22 14:19:16;;;;;;;96.43;42.08;;;;;;;2.23;100.00;100237.22;5532299;32;33851;-88
2022/12/22 14:22:23;;;;;;;99.90;44.00;;;;;;;2.12;100.00;100229.53;5530251;32;34474;-88
2022/12/22 14:25:32;;;;;;;89.82;41.78;;;;;;;2.07;100.00;100234.00;5530012;32;34355;-92
2022/12/22 14:28:49;;;;;;;106.65;45.72;;;;;;;2.09;100.00;100252.28;5531195;32;35273;-92
2022/12/22 14:31:58;;;;;;;106.70;44.15;;;;;;;2.10;100.00;100230.44;5518152;32;33092;-88
2022/12/22 14:35:01;;;;;;;92.62;42.95;;;;;;;2.18;100.00;100240.78;5516174;32;32785;-88
2022/12/22 14:38:03;;;;;;;91.85;42.00;;;;;;;2.24;100.00;100249.41;5530162;32;34660;-88
2022/12/22 14:41:40;;;;;;;95.10;44.10;;;;;;;2.26;100.00;100270.34;5523450;32;33618;-88
2022/12/22 14:44:45;;;;;;;94.90;41.28;;;;;;;2.34;100.00;100280.66;5539324;32;34930;-88
2022/12/22 14:47:52;;;;;;;100.97;45.47;;;;;;;2.35;100.00;100272.78;5533776;32;34614;-88
2022/12/22 14:50:55;;;;;;;97.53;43.50;;;;;;;2.58;100.00;100262.78;5530386;32;34139;-88
2022/12/22 14:54:01;;;;;;;98.95;43.65;;;;;;;2.47;100.00;100270.84;5530603;32;34803;-88
2022/12/22 14:57:10;;;;;;;100.50;44.75;;;;;;;2.37;100.00;100247.41;5530718;32;33775;-88
2022/12/22 15:00:23;;;;;;;108.22;45.72;;;;;;;2.23;100.00;100245.06;5532157;32;34627;-89
2022/12/22 15:03:32;;;;;;;104.70;47.30;;;;;;;2.23;100.00;100229.38;5531014;32;34341;-88
2022/12/22 15:06:47;;;;;;;103.93;47.10;;;;;;;2.06;100.00;100232.25;5531777;32;33818;-89
2022/12/22 15:09:49;;;;;;;101.97;45.50;;;;;;;2.05;100.00;100230.53;5537461;32;34331;-90
2022/12/22 15:16:58;;;;;;;100.47;45.92;;;;;;;1.86;100.00;100240.44;1203813;27;20620;-89
2022/12/22 15:20:03;;;;;;;110.67;48.70;;;;;;;1.87;100.00;100242.19;5570556;26;31430;-89
2022/12/22 15:23:15;;;;;;;107.90;47.15;;;;;;;1.80;100.00;100236.16;5583145;26;33890;-89
2022/12/22 15:26:19;;;;;;;120.55;48.72;;;;;;;1.92;100.00;100231.62;5614891;26;33214;-89
2022/12/22 15:33:13;;;;;;;110.85;47.80;;;;;;;1.83;100.00;100224.78;4072838;30;20080;-88
2022/12/22 15:39:56;;;;;;;113.43;47.83;;;;;;;1.79;100.00;100199.56;5581679;26;20100;-89
2022/12/22 15:42:59;;;;;;;109.00;46.37;;;;;;;1.77;100.00;100191.75;5591429;26;34771;-90
2022/12/22 16:01:03;;;;;;;129.75;50.05;;;;;;;1.47;100.00;100188.75;2075369;26;20049;-88
2022/12/22 16:04:21;;;;;;;127.43;50.78;;;;;;;1.53;100.00;100183.41;2275750;30;20625;-89
2022/12/22 16:11:00;;;;;;;123.00;49.42;;;;;;;1.51;100.00;100190.41;5528925;26;33725;-88
2022/12/22 16:14:04;;;;;;;123.22;51.10;;;;;;;1.51;100.00;100198.25;5493547;26;33822;-88
2022/12/22 16:17:16;;;;;;;126.35;50.70;;;;;;;1.52;100.00;100191.28;5550521;26;33453;-89
2022/12/22 16:20:21;;;;;;;120.82;50.92;;;;;;;1.45;100.00;100199.22;5520837;32;34505;-89
2022/12/22 16:23:25;;;;;;;124.47;49.67;;;;;;;1.54;100.00;100213.03;5518403;32;34003;-88
2022/12/22 16:26:29;;;;;;;125.22;49.08;;;;;;;1.49;100.00;100220.94;5517656;26;33224;-88
2022/12/22 16:29:31;;;;;;;116.47;48.05;;;;;;;1.56;100.00;100227.78;5505750;32;33123;-88
2022/12/22 16:32:34;;;;;;;128.98;51.33;;;;;;;1.72;100.00;100230.19;5551093;26;36398;-88
2022/12/22 16:35:38;;;;;;;122.80;48.65;;;;;;;1.61;100.00;100233.81;5520892;32;34831;-88
2022/12/22 16:38:41;;;;;;;115.95;49.95;;;;;;;1.61;100.00;100225.97;5537846;26;33251;-88
2022/12/22 16:41:50;;;;;;;113.05;48.03;;;;;;;1.66;100.00;100230.28;5534038;26;34084;-89
2022/12/22 16:45:04;;;;;;;115.00;48.63;;;;;;;1.59;100.00;100221.66;5555615;26;33046;-88
2022/12/22 16:48:13;;;;;;;116.18;49.42;;;;;;;1.64;100.00;100225.06;5556281;26;33826;-88
2022/12/22 16:51:23;;;;;;;117.35;48.58;;;;;;;1.67;100.00;100229.41;5567694;26;34340;-88
2022/12/22 16:54:25;;;;;;;108.80;46.75;;;;;;;1.68;100.00;100225.88;5518957;32;33898;-88
2022/12/22 16:57:28;;;;;;;113.43;46.65;;;;;;;1.63;100.00;100228.59;5517127;32;35081;-88
2022/12/22 17:00:46;;;;;;;106.78;45.40;;;;;;;1.67;100.00;100230.28;5575301;26;33954;-89
2022/12/22 17:03:56;;;;;;;111.22;44.10;;;;;;;1.69;100.00;100225.00;5549298;26;35215;-89
2022/12/22 17:21:30;;;;;;;97.47;40.67;;;;;;;2.49;100.00;100208.81;6699424;26;20034;-90
2022/12/22 17:24:33;;;;;;;86.10;38.03;;;;;;;2.01;100.00;100208.78;6700484;26;34135;-90
2022/12/22 17:27:35;;;;;;;91.72;39.80;;;;;;;2.01;100.00;100206.16;6687694;26;33193;-89
2022/12/22 17:30:41;;;;;;;87.72;39.10;;;;;;;1.97;100.00;100209.72;6700844;26;34791;-90
2022/12/22 17:33:47;;;;;;;86.55;39.78;;;;;;;1.99;100.00;100202.72;6684545;26;33744;-90
2022/12/22 17:36:50;;;;;;;87.35;38.25;;;;;;;2.09;100.00;100208.66;6705667;26;35155;-90
2022/12/22 17:47:05;;;;;;;85.30;35.50;;;;;;;2.09;100.00;100206.03;6696834;26;34160;-89
2022/12/22 17:50:12;;;;;;;73.80;34.75;;;;;;;2.08;100.00;100208.69;6683022;26;32770;-89
2022/12/22 17:53:18;;;;;;;73.50;32.78;;;;;;;2.18;100.00;100207.63;6706440;26;33763;-88
2022/12/22 17:56:24;;;;;;;69.07;32.17;;;;;;;2.10;100.00;100210.37;6673650;26;34436;-88
2022/12/22 17:59:27;;;;;;;71.65;32.08;;;;;;;2.14;100.00;100206.84;6696991;26;33959;-88
2022/12/22 18:02:30;;;;;;;72.95;34.25;;;;;;;2.12;100.00;100210.37;6704698;26;34774;-88
2022/12/22 18:05:40;;;;;;;75.50;33.25;;;;;;;2.11;100.00;100203.41;6677345;26;32425;-88
2022/12/22 18:08:43;;;;;;;72.93;33.17;;;;;;;2.12;100.00;100205.12;6661791;26;33489;-89
2022/12/22 18:11:47;;;;;;;67.03;32.47;;;;;;;2.19;100.00;100211.97;6670951;26;34179;-89
2022/12/22 18:14:50;;;;;;;79.75;32.85;;;;;;;2.19;100.00;100211.09;6669771;26;32625;-88
2022/12/22 18:17:54;;;;;;;73.00;33.50;;;;;;;2.14;100.00;100211.19;6675223;26;34210;-89
2022/12/22 18:20:57;;;;;;;72.85;34.13;;;;;;;2.21;100.00;100210.19;6680090;26;32190;-89
2022/12/22 18:24:17;;;;;;;72.65;32.50;;;;;;;2.25;100.00;100218.84;6679367;26;32975;-89
2022/12/22 18:27:22;;;;;;;83.47;37.55;;;;;;;2.27;100.00;100217.94;6699588;26;34512;-89
2022/12/22 18:30:31;;;;;;;81.68;36.63;;;;;;;2.39;100.00;100214.25;6702231;26;33989;-89
2022/12/22 18:33:33;;;;;;;77.30;36.70;;;;;;;2.33;100.00;100216.97;6703951;26;35271;-88
2022/12/22 18:40:28;;;;;;;84.62;37.30;;;;;;;2.32;100.00;100207.41;6699732;26;20309;-88
2022/12/22 18:43:31;;;;;;;94.78;38.80;;;;;;;2.29;100.00;100192.59;6700731;26;34181;-89
2022/12/22 19:13:25;;;;;;;88.47;37.35;;;;;;;2.35;100.00;100154.97;6692476;26;33741;-88
2022/12/22 19:16:41;;;;;;;81.60;38.15;;;;;;;2.36;100.00;100148.84;6693281;26;34023;-88
2022/12/22 19:19:47;;;;;;;80.28;36.38;;;;;;;2.37;100.00;100142.69;6695732;26;34344;-87
2022/12/22 19:22:50;;;;;;;84.20;38.00;;;;;;;2.42;100.00;100148.72;6699046;26;34901;-88
2022/12/22 19:26:01;;;;;;;85.85;37.63;;;;;;;2.48;100.00;100145.13;6691364;26;34424;-88
2022/12/22 19:29:12;;;;;;;91.75;37.72;;;;;;;2.35;100.00;100151.47;6692271;26;34369;-88
2022/12/22 19:32:25;;;;;;;84.53;38.13;;;;;;;2.32;100.00;100147.19;6700225;26;34094;-88
2022/12/22 19:35:31;;;;;;;83.32;36.92;;;;;;;2.42;100.00;100146.09;6699310;26;34321;-88
2022/12/22 19:38:35;;;;;;;78.18;36.50;;;;;;;2.51;100.00;100131.97;6678906;26;33304;-88
2022/12/22 19:41:46;;;;;;;78.97;36.33;;;;;;;2.48;100.00;100136.41;6696648;26;33909;-88
2022/12/22 19:44:50;;;;;;;78.37;35.17;;;;;;;2.42;100.00;100113.84;6678075;26;32484;-88
2022/12/22 19:47:54;;;;;;;77.75;36.42;;;;;;;2.50;100.00;100109.28;6691457;26;36462;-89
2022/12/22 19:50:58;;;;;;;91.43;38.15;;;;;;;2.39;100.00;100111.25;6691459;26;34023;-88
2022/12/22 19:54:01;;;;;;;94.93;42.30;;;;;;;2.37;100.00;100113.91;6693536;26;34956;-89
2022/12/22 19:57:12;;;;;;;87.85;39.17;;;;;;;2.36;100.00;100099.09;6698224;26;34666;-88
2022/12/22 20:00:21;;;;;;;96.75;39.22;;;;;;;2.39;100.00;100104.28;6696936;26;33794;-89
2022/12/22 20:03:25;;;;;;;102.57;43.40;;;;;;;2.45;100.00;100094.59;6698911;26;34891;-89
2022/12/22 20:06:27;;;;;;;106.57;41.53;;;;;;;2.39;100.00;100104.28;6699820;26;34778;-88
2022/12/22 20:09:31;;;;;;;102.95;41.45;;;;;;;2.44;100.00;100101.56;6690125;26;32305;-88
2022/12/22 20:12:38;;;;;;;103.38;41.55;;;;;;;2.53;100.00;100103.97;6702188;26;34173;-86
2022/12/22 20:15:42;;;;;;;107.03;42.50;;;;;;;2.60;100.00;100122.19;6677530;26;32628;-87
2022/12/22 20:18:45;;;;;;;99.93;40.83;;;;;;;2.58;100.00;100117.00;6695494;26;33873;-87
2022/12/22 20:21:48;;;;;;;90.50;37.00;;;;;;;2.67;100.00;100113.31;6698818;26;33610;-87
2022/12/22 20:24:53;;;;;;;87.43;37.03;;;;;;;2.73;100.00;100104.47;6695967;26;34200;-87
2022/12/22 20:27:56;;;;;;;91.63;38.70;;;;;;;2.89;100.00;100105.84;6694489;26;34423;-87
2022/12/22 20:31:06;;;;;;;90.93;39.15;;;;;;;2.85;100.00;100111.22;6696018;26;34312;-88
2022/12/22 20:34:09;;;;;;;97.37;40.88;;;;;;;2.79;100.00;100104.31;6692027;26;34091;-88
2022/12/22 20:37:14;;;;;;;90.28;38.47;;;;;;;2.88;100.00;100101.53;6692406;26;34480;-88
2022/12/22 20:40:29;;;;;;;87.60;38.35;;;;;;;2.91;100.00;100104.06;6687249;26;34636;-88
2022/12/22 20:43:33;;;;;;;89.85;38.17;;;;;;;2.87;100.00;100086.66;6693559;26;33783;-88
2022/12/22 20:46:38;;;;;;;83.72;38.65;;;;;;;2.93;100.00;100088.31;6694827;26;33745;-87
2022/12/22 20:49:41;;;;;;;87.10;37.53;;;;;;;2.93;100.00;100085.69;6673378;26;33345;-88
2022/12/22 20:52:45;;;;;;;93.90;38.42;;;;;;;2.97;100.00;100082.13;6671792;26;32889;-87
2022/12/22 20:55:47;;;;;;;94.72;39.70;;;;;;;3.01;100.00;100083.75;6671464;26;32389;-87
2022/12/22 20:58:51;;;;;;;93.00;39.45;;;;;;;3.04;100.00;100080.19;6671246;26;32551;-88
2022/12/22 21:01:54;;;;;;;92.05;39.90;;;;;;;3.06;100.00;100073.16;6691883;26;33656;-87
2022/12/22 21:04:57;;;;;;;87.65;39.88;;;;;;;3.15;100.00;100078.19;6694205;26;33804;-88
2022/12/22 21:07:59;;;;;;;92.50;40.95;;;;;;;3.16;100.00;100071.19;6677079;26;34400;-88
2022/12/22 21:11:04;;;;;;;94.60;41.63;;;;;;;3.14;100.00;100072.97;6706463;26;35178;-88
2022/12/22 21:14:08;;;;;;;108.53;42.60;;;;;;;3.13;100.00;100077.37;6696128;26;34716;-88
2022/12/22 21:17:15;;;;;;;99.32;43.50;;;;;;;3.10;100.00;100086.16;6696705;26;34444;-88
2022/12/22 21:20:24;;;;;;;95.22;41.47;;;;;;;3.02;100.00;100092.47;6701990;26;33910;-87
2022/12/22 21:23:29;;;;;;;97.35;41.92;;;;;;;3.02;100.00;100087.25;6700860;26;35180;-88
2022/12/22 21:26:41;;;;;;;91.00;40.33;;;;;;;3.06;100.00;100091.50;6707485;26;35298;-87
2022/12/22 21:29:46;;;;;;;100.60;42.20;;;;;;;3.22;100.00;100076.28;6673058;26;34174;-87
2022/12/22 21:32:53;;;;;;;111.43;44.03;;;;;;;3.09;100.00;100079.22;6697625;26;34022;-87
2022/12/22 21:36:18;;;;;;;114.43;46.75;;;;;;;3.00;100.00;100081.16;6702150;26;33759;-88
2022/12/22 21:39:51;;;;;;;116.47;46.30;;;;;;;2.91;100.00;100088.34;6698750;26;33697;-88
2022/12/22 21:42:56;;;;;;;117.47;45.60;;;;;;;2.80;100.00;100083.34;6678104;26;33723;-88
2022/12/22 21:45:59;;;;;;;117.15;46.65;;;;;;;2.80;100.00;100083.34;6702043;26;33917;-88
2022/12/22 21:49:02;;;;;;;112.72;46.35;;;;;;;2.74;100.00;100075.63;6686329;26;33798;-88
2022/12/22 21:52:06;;;;;;;122.03;48.22;;;;;;;2.82;100.00;100073.69;6702046;26;33813;-88
2022/12/22 21:55:09;;;;;;;122.78;47.08;;;;;;;2.86;100.00;100071.00;6707988;26;33846;-89
2022/12/22 21:58:13;;;;;;;123.13;47.83;;;;;;;2.78;100.00;100086.88;6709193;26;36265;-88
2022/12/22 22:01:17;;;;;;;129.55;47.83;;;;;;;2.72;100.00;100079.16;6678310;26;33974;-87
2022/12/22 22:04:20;;;;;;;112.70;47.05;;;;;;;2.81;100.00;100069.34;6679453;26;33817;-89
2022/12/22 22:07:25;;;;;;;116.07;48.20;;;;;;;2.72;100.00;100076.56;6708039;26;35061;-87
2022/12/22 22:10:32;;;;;;;116.60;46.63;;;;;;;2.69;100.00;100067.00;6707025;26;33880;-89
2022/12/22 22:13:35;;;;;;;132.43;47.88;;;;;;;2.70;100.00;100068.72;6702438;26;35024;-87
2022/12/22 22:16:38;;;;;;;120.40;48.45;;;;;;;2.55;100.00;100062.94;6697805;26;34005;-87
2022/12/22 22:19:48;;;;;;;128.65;49.47;;;;;;;2.54;100.00;100065.56;6701701;26;34345;-88
2022/12/22 22:27:20;;;;;;;115.60;48.10;;;;;;;2.60;100.00;100067.19;6640028;26;20020;-88
2022/12/22 22:30:24;;;;;;;121.60;48.85;;;;;;;2.63;100.00;100070.63;6668077;26;34260;-89
2022/12/22 22:33:27;;;;;;;125.03;48.50;;;;;;;2.61;100.00;100074.16;6667325;26;33731;-89
2022/12/22 22:36:30;;;;;;;118.28;47.75;;;;;;;2.67;100.00;100074.03;6669417;26;34009;-89
2022/12/22 22:39:32;;;;;;;125.53;50.28;;;;;;;2.62;100.00;100068.88;6671645;26;33872;-89
2022/12/22 22:42:36;;;;;;;117.15;47.42;;;;;;;2.70;100.00;100073.94;6665099;26;34613;-89
2022/12/22 22:45:40;;;;;;;128.05;50.67;;;;;;;2.86;100.00;100066.63;6669959;26;34183;-89
2022/12/22 22:48:45;;;;;;;119.13;50.42;;;;;;;2.85;100.00;100064.91;6665553;26;34163;-89
2022/12/22 22:51:48;;;;;;;131.05;51.28;;;;;;;2.73;100.00;100062.56;6665070;26;34793;-89
2022/12/22 22:54:51;;;;;;;130.02;51.65;;;;;;;2.73;100.00;100050.31;6666270;26;33778;-89
2022/12/22 22:57:53;;;;;;;124.53;50.55;;;;;;;2.81;100.00;100040.53;6667755;26;35197;-89
2022/12/22 23:01:08;;;;;;;130.55;51.17;;;;;;;2.72;100.00;100064.31;6664971;26;35364;-89
2022/12/22 23:04:11;;;;;;;121.53;49.78;;;;;;;2.73;100.00;100054.69;6664243;26;34604;-89
2022/12/22 23:07:14;;;;;;;120.57;49.85;;;;;;;2.77;100.00;100058.97;6665140;26;34970;-89
2022/12/22 23:10:17;;;;;;;121.87;49.47;;;;;;;2.76;100.00;100055.47;6644717;26;32739;-89
2022/12/22 23:13:20;;;;;;;121.60;50.47;;;;;;;2.83;100.00;100051.81;6645495;26;32247;-88
2022/12/22 23:16:23;;;;;;;125.22;49.78;;;;;;;2.79;100.00;100039.72;6665528;26;34004;-89